Arroyo Grande, California
Current Conditions -  °F | °C
As of 11:56 AM on Friday 19 Dec 2014 (Local Time) from KSBP Reporting Station
Broken Clouds Broken Clouds  
Wind Chill: 60°   Ceiling: 4000
Heat Index: 60°   Visibility: 10mi
Dew Point: 51°   Wind: 6mph
Humidity: 72%   Direction: 150°SSE
Pressure: 30.22"   Gusts: NA
Location:  35.12°N, 120.57°W
Report Text: KSBP 191956Z 15005KT 10SM BKN040 16/11 A3022 RMK AO2 SLP231 T01560106
Loading
Personal Weather Stations






























Interactive Weather Map New forecast layout! Learn more

10-Day Weather Forecast

Advertisements
Track Severe Weather on mobile